Aeroporto :
LOGIN :

Iscrizione | Disclaimer

   EN    FR    IT 

 










Sommario :    VFR   VFR Marginale   IFR   IFR Intensivo   IFR Molto Intensivo
Visibilità : 
Base nubi : 
>= 8 km
>= 3000ft
5 / 8 km
1000 / 3000 ft
1500m / 5 km
500 / 1000 ft
800 / 1500m
200 / 500 ft
< 800m
< 200 ft
Simboli :   Temporali  Nebbia  Neve Forte  Precipitazioni Forti  Vento > 20 kt
SIGMETs :   Varie  Temporali  Ghiacco  Turbolenza  Onda orograficha  Ceneri Vulcaniche






- Altitudine del aeroporto : 20 ft
- Codice IATA : DLM


LTBS - Dalaman

ULTIMO METAR :
  • 100320Z 02005KT 6000 NSC 08/08 Q1010 NOSIG

METARs OBSOLETI :
  • 100250Z 35003KT CAVOK 10/10 Q1010 NOSIG
  • 100220Z VRB02KT CAVOK 09/09 Q1010 NOSIG
  • 100150Z 08003KT 020V110 CAVOK 09/09 Q1010 NOSIG
  • 100120Z 09004KT CAVOK 10/10 Q1011 NOSIG
  • 100050Z 08005KT CAVOK 10/09 Q1011 NOSIG

TAF TAF LTBS
Valido dal 10 a 00 ore il 11 a 00 ore UTC


092240Z 1000/1024 VRB02KT CAVOK
BECMG 1007/1009 21012KT SCT030
BECMG 1015/1017 VRB02KT CAVOK



MetMap, La meteo Aeronautica in un colpo d'occhio ! - Copyright ORBIFLY Dicembre 2007 - Disclaimer

ORBIFLY MET'MAP TEAM :

Programmazione e sviluppo : Alexandra Zaïnal
Concezione : Baudouin d'Aumeries
Aiuto per la programmazione : Marc-Olivier Méhu
Supporto tecnico e logistico : Manuel Goepfert
Aiuto per la traduzione : Arnaldo La Scala

Contatto : metmap@orbifly.com




FONTI E CREDITI :

   NOAA